Time;durP1;ratioP1;P1;durP2;ratioP2;P2;SDS_P1;SDS_P2;PMS_P1;PMS_P2;Temp;Humidity;BMP_temperature;BMP_pressure;BME280_temperature;BME280_humidity;BME280_pressure;Samples;Min_cycle;Max_cycle;Signal;HPM_P1;HPM_P2
2023/10/30 00:00:48;;;;;;;5.93;2.97;;;;;;;;;;5112823;28;20051;-53
2023/10/30 00:03:15;;;;;;;5.68;3.33;;;;;;;;;;5113739;28;20071;-56
2023/10/30 00:05:42;;;;;;;6.30;3.30;;;;;;;;;;5101286;28;20054;-55
2023/10/30 00:08:08;;;;;;;6.63;4.20;;;;;;;;;;5107425;28;20122;-55
2023/10/30 00:10:35;;;;;;;6.35;4.13;;;;;;;;;;5113884;28;20048;-56
2023/10/30 00:13:03;;;;;;;6.32;4.03;;;;;;;;;;5113632;28;20039;-55
2023/10/30 00:15:30;;;;;;;7.15;3.78;;;;;;;;;;5102792;28;20048;-55
2023/10/30 00:17:57;;;;;;;6.63;3.63;;;;;;;;;;5110866;28;20131;-55
2023/10/30 00:20:24;;;;;;;7.05;3.65;;;;;;;;;;5109921;27;20058;-53
2023/10/30 00:22:50;;;;;;;7.50;4.07;;;;;;;;;;5104867;28;20123;-51
2023/10/30 00:25:18;;;;;;;8.15;4.10;;;;;;;;;;5105315;28;20336;-52
2023/10/30 00:27:44;;;;;;;6.13;3.95;;;;;;;;;;5101513;28;20101;-55
2023/10/30 00:30:13;;;;;;;6.25;3.63;;;;;;;;;;5103511;28;20070;-52
2023/10/30 00:32:40;;;;;;;7.28;4.07;;;;;;;;;;5099440;28;20055;-55
2023/10/30 00:35:07;;;;;;;6.35;4.25;;;;;;;;;;5095814;28;20043;-56
2023/10/30 00:37:34;;;;;;;6.38;3.80;;;;;;;;;;5099874;28;20419;-53
2023/10/30 00:40:01;;;;;;;9.45;4.45;;;;;;;;;;5107296;28;20127;-54
2023/10/30 00:42:28;;;;;;;6.93;3.60;;;;;;;;;;5108942;28;20052;-56
2023/10/30 00:44:55;;;;;;;6.65;3.70;;;;;;;;;;5109828;28;20048;-56
2023/10/30 00:47:23;;;;;;;7.63;4.15;;;;;;;;;;5105979;28;20546;-56
2023/10/30 00:49:50;;;;;;;8.18;3.88;;;;;;;;;;5104609;28;20036;-52
2023/10/30 00:52:17;;;;;;;5.35;3.42;;;;;;;;;;5101097;28;20048;-54
2023/10/30 00:54:44;;;;;;;6.43;3.35;;;;;;;;;;5111304;28;20478;-52
2023/10/30 00:57:11;;;;;;;6.03;3.42;;;;;;;;;;5103693;28;20695;-52
2023/10/30 00:59:38;;;;;;;6.03;3.75;;;;;;;;;;5101882;28;20130;-52
2023/10/30 01:02:08;;;;;;;6.63;4.13;;;;;;;;;;5102539;28;20645;-54
2023/10/30 01:04:40;;;;;;;6.22;3.78;;;;;;;;;;5113665;28;20055;-55
2023/10/30 01:07:06;;;;;;;5.68;3.53;;;;;;;;;;5106401;28;20036;-53
2023/10/30 01:09:33;;;;;;;6.80;3.90;;;;;;;;;;5107960;28;20044;-53
2023/10/30 01:12:00;;;;;;;7.78;3.75;;;;;;;;;;5113097;28;20123;-55
2023/10/30 01:14:27;;;;;;;6.90;4.25;;;;;;;;;;5109086;28;20564;-52
2023/10/30 01:16:53;;;;;;;5.30;3.40;;;;;;;;;;5092773;28;20040;-50
2023/10/30 01:19:20;;;;;;;6.72;4.18;;;;;;;;;;5109501;28;20039;-54
2023/10/30 01:21:48;;;;;;;7.22;4.22;;;;;;;;;;5107091;28;20050;-55
2023/10/30 01:24:15;;;;;;;6.88;4.30;;;;;;;;;;5112201;28;20497;-54
2023/10/30 01:26:42;;;;;;;8.65;4.07;;;;;;;;;;5107112;28;20044;-54
2023/10/30 01:29:09;;;;;;;6.65;4.15;;;;;;;;;;5109373;28;20074;-54
2023/10/30 01:31:35;;;;;;;8.35;4.30;;;;;;;;;;5103890;28;20469;-56
2023/10/30 01:34:02;;;;;;;7.20;4.28;;;;;;;;;;5091492;28;20512;-51
2023/10/30 01:36:30;;;;;;;6.28;4.07;;;;;;;;;;5091546;28;20087;-52
2023/10/30 01:38:58;;;;;;;6.72;4.57;;;;;;;;;;5099606;28;20050;-51
2023/10/30 01:41:25;;;;;;;8.27;4.40;;;;;;;;;;5093036;28;20048;-55
2023/10/30 01:43:52;;;;;;;7.70;4.28;;;;;;;;;;5104515;28;20141;-50
2023/10/30 01:46:19;;;;;;;7.70;4.28;;;;;;;;;;5103521;28;20055;-51
2023/10/30 01:48:46;;;;;;;9.25;4.50;;;;;;;;;;5099438;28;20071;-51
2023/10/30 01:51:13;;;;;;;6.60;4.20;;;;;;;;;;5100140;28;20055;-51
2023/10/30 01:53:40;;;;;;;7.32;4.03;;;;;;;;;;5112049;28;20140;-51
2023/10/30 01:56:09;;;;;;;7.72;4.13;;;;;;;;;;5112106;28;20539;-53
2023/10/30 01:58:37;;;;;;;7.20;3.85;;;;;;;;;;5108551;28;20063;-52
2023/10/30 02:01:04;;;;;;;8.70;4.10;;;;;;;;;;5108458;28;20054;-53
2023/10/30 02:03:31;;;;;;;6.78;4.30;;;;;;;;;;5112083;28;20044;-53
2023/10/30 02:05:58;;;;;;;7.40;4.13;;;;;;;;;;5110042;28;20046;-56
2023/10/30 02:08:25;;;;;;;6.93;4.13;;;;;;;;;;5110708;28;20047;-53
2023/10/30 02:10:52;;;;;;;9.57;4.50;;;;;;;;;;5111197;28;20046;-55
2023/10/30 02:13:20;;;;;;;7.40;4.43;;;;;;;;;;5105211;28;20127;-56
2023/10/30 02:15:47;;;;;;;6.85;4.00;;;;;;;;;;5111881;28;20051;-52
2023/10/30 02:18:13;;;;;;;7.97;4.28;;;;;;;;;;5110506;28;20419;-53
2023/10/30 02:20:40;;;;;;;9.43;5.53;;;;;;;;;;5100908;28;20556;-53
2023/10/30 02:23:07;;;;;;;6.95;4.50;;;;;;;;;;5109106;28;20415;-53
2023/10/30 02:25:35;;;;;;;7.85;4.85;;;;;;;;;;5114757;28;20456;-56
2023/10/30 02:28:02;;;;;;;8.20;4.35;;;;;;;;;;5115298;28;20043;-54
2023/10/30 02:30:29;;;;;;;6.50;4.40;;;;;;;;;;5112034;28;20055;-56
2023/10/30 02:32:56;;;;;;;6.63;3.85;;;;;;;;;;5097778;28;20090;-53
2023/10/30 02:35:22;;;;;;;6.50;3.95;;;;;;;;;;5115359;28;20123;-54
2023/10/30 02:37:49;;;;;;;7.40;3.95;;;;;;;;;;5112073;27;20057;-56
2023/10/30 02:40:16;;;;;;;7.13;4.03;;;;;;;;;;5106509;28;20256;-53
2023/10/30 02:42:44;;;;;;;8.07;4.25;;;;;;;;;;5101594;28;20044;-57
2023/10/30 02:45:11;;;;;;;7.10;4.20;;;;;;;;;;5097291;28;20060;-57
2023/10/30 02:47:38;;;;;;;8.73;4.47;;;;;;;;;;5094972;28;20123;-52
2023/10/30 02:50:06;;;;;;;6.80;4.05;;;;;;;;;;5103281;28;20122;-52
2023/10/30 02:52:32;;;;;;;6.90;3.85;;;;;;;;;;5115755;28;20122;-55
2023/10/30 02:54:59;;;;;;;6.30;3.72;;;;;;;;;;5115247;28;20126;-51
2023/10/30 02:57:26;;;;;;;6.80;4.32;;;;;;;;;;5115387;28;20495;-55
2023/10/30 02:59:54;;;;;;;6.45;3.65;;;;;;;;;;5113436;28;20416;-54
2023/10/30 03:02:20;;;;;;;6.85;4.05;;;;;;;;;;5108342;28;20082;-51
2023/10/30 03:04:47;;;;;;;6.60;3.70;;;;;;;;;;5115181;28;20173;-52
2023/10/30 03:07:15;;;;;;;7.38;3.75;;;;;;;;;;5115044;28;20127;-53
2023/10/30 03:09:42;;;;;;;7.35;3.88;;;;;;;;;;5110461;28;20043;-51
2023/10/30 03:12:09;;;;;;;6.97;4.25;;;;;;;;;;5107511;28;20092;-56
2023/10/30 03:14:35;;;;;;;7.55;3.83;;;;;;;;;;5114826;28;20131;-59
2023/10/30 03:17:03;;;;;;;6.70;3.70;;;;;;;;;;5115074;28;20509;-57
2023/10/30 03:19:30;;;;;;;8.18;3.72;;;;;;;;;;5114198;28;20148;-51
2023/10/30 03:21:57;;;;;;;7.25;3.90;;;;;;;;;;5110892;28;20055;-52
2023/10/30 03:24:23;;;;;;;7.43;4.97;;;;;;;;;;5106264;28;20360;-55
2023/10/30 03:26:51;;;;;;;8.70;4.07;;;;;;;;;;5114595;28;20050;-55
2023/10/30 03:29:17;;;;;;;5.95;3.90;;;;;;;;;;5114040;28;20046;-57
2023/10/30 03:31:44;;;;;;;7.72;3.97;;;;;;;;;;5113250;28;20048;-53
2023/10/30 03:34:15;;;;;;;7.80;4.47;;;;;;;;;;5115071;28;20075;-54
2023/10/30 03:36:42;;;;;;;7.05;4.18;;;;;;;;;;5114603;28;20043;-52
2023/10/30 03:39:08;;;;;;;7.55;4.15;;;;;;;;;;5114379;28;20079;-55
2023/10/30 03:41:37;;;;;;;7.38;4.20;;;;;;;;;;5111003;28;20118;-51
2023/10/30 03:44:04;;;;;;;7.10;3.75;;;;;;;;;;5103425;28;20055;-52
2023/10/30 03:46:30;;;;;;;6.50;3.78;;;;;;;;;;5114381;28;20051;-52
2023/10/30 03:48:57;;;;;;;7.22;3.88;;;;;;;;;;5113805;28;20050;-53
2023/10/30 03:51:25;;;;;;;6.53;4.00;;;;;;;;;;5104507;28;20083;-53
2023/10/30 03:53:52;;;;;;;7.70;4.00;;;;;;;;;;5103381;28;20074;-54
2023/10/30 03:56:19;;;;;;;6.63;4.30;;;;;;;;;;5098966;28;20411;-56
2023/10/30 03:58:45;;;;;;;6.78;4.07;;;;;;;;;;5107032;28;20104;-55
2023/10/30 04:01:12;;;;;;;7.07;4.00;;;;;;;;;;5108634;28;20040;-51
2023/10/30 04:03:39;;;;;;;5.53;3.45;;;;;;;;;;5109595;28;20154;-50
2023/10/30 04:06:05;;;;;;;5.78;3.80;;;;;;;;;;5102109;28;20071;-53
2023/10/30 04:08:34;;;;;;;6.55;3.47;;;;;;;;;;5106597;28;20039;-53
2023/10/30 04:11:01;;;;;;;6.38;4.03;;;;;;;;;;5108613;28;20407;-57
2023/10/30 04:13:28;;;;;;;5.57;4.00;;;;;;;;;;5103351;28;20071;-53
2023/10/30 04:15:54;;;;;;;7.30;4.03;;;;;;;;;;5106401;28;20772;-56
2023/10/30 04:18:21;;;;;;;6.82;3.80;;;;;;;;;;5093842;28;20059;-53
2023/10/30 04:20:48;;;;;;;5.13;3.13;;;;;;;;;;5108278;28;20135;-51
2023/10/30 04:23:14;;;;;;;6.97;3.78;;;;;;;;;;5112010;28;20070;-50
2023/10/30 04:25:42;;;;;;;6.50;4.05;;;;;;;;;;5113281;28;20127;-57
2023/10/30 04:28:09;;;;;;;6.38;3.95;;;;;;;;;;5113443;28;20131;-52
2023/10/30 04:30:36;;;;;;;6.28;3.78;;;;;;;;;;5113659;28;20043;-54
2023/10/30 04:33:02;;;;;;;6.60;4.25;;;;;;;;;;5108250;28;20062;-51
2023/10/30 04:35:29;;;;;;;6.05;3.70;;;;;;;;;;5111973;28;20052;-52
2023/10/30 04:37:56;;;;;;;8.05;4.40;;;;;;;;;;5113443;28;20423;-54
2023/10/30 04:40:23;;;;;;;8.52;4.35;;;;;;;;;;5113182;28;20126;-56
2023/10/30 04:42:51;;;;;;;7.63;4.50;;;;;;;;;;5112266;28;20098;-55
2023/10/30 04:45:18;;;;;;;7.18;4.22;;;;;;;;;;5106746;28;20131;-54
2023/10/30 04:47:44;;;;;;;7.95;4.32;;;;;;;;;;5112540;28;20043;-55
2023/10/30 04:50:11;;;;;;;7.70;4.50;;;;;;;;;;5112435;28;20506;-54
2023/10/30 04:52:38;;;;;;;7.78;4.90;;;;;;;;;;5112950;28;20147;-55
2023/10/30 04:55:05;;;;;;;7.60;4.82;;;;;;;;;;5103817;28;20044;-53
2023/10/30 04:57:32;;;;;;;8.65;5.45;;;;;;;;;;5112267;28;20131;-51
2023/10/30 05:00:00;;;;;;;7.90;4.97;;;;;;;;;;5109008;28;20082;-54
2023/10/30 05:02:27;;;;;;;7.63;5.00;;;;;;;;;;5112938;28;20491;-53
2023/10/30 05:04:54;;;;;;;7.57;4.88;;;;;;;;;;5105958;28;20123;-54
2023/10/30 05:07:20;;;;;;;8.07;5.43;;;;;;;;;;5113329;28;20131;-51
2023/10/30 05:09:47;;;;;;;7.28;4.60;;;;;;;;;;5112695;28;20078;-52
2023/10/30 05:12:14;;;;;;;6.97;4.72;;;;;;;;;;5112670;28;20155;-51
2023/10/30 05:14:40;;;;;;;7.88;5.22;;;;;;;;;;5110487;28;20482;-50
2023/10/30 05:17:08;;;;;;;8.05;5.28;;;;;;;;;;5105541;28;20126;-51
2023/10/30 05:19:35;;;;;;;7.07;4.57;;;;;;;;;;5112041;28;20501;-53
2023/10/30 05:22:02;;;;;;;9.07;5.57;;;;;;;;;;5112738;28;20100;-51
2023/10/30 05:24:28;;;;;;;9.75;5.05;;;;;;;;;;5111362;28;20452;-52
2023/10/30 05:26:55;;;;;;;7.78;4.63;;;;;;;;;;5100891;28;20525;-52
2023/10/30 05:29:22;;;;;;;7.47;5.22;;;;;;;;;;5110748;28;20485;-56
2023/10/30 05:31:48;;;;;;;6.88;4.97;;;;;;;;;;5101339;28;20507;-53
2023/10/30 05:34:16;;;;;;;9.40;5.63;;;;;;;;;;5100538;28;20567;-55
2023/10/30 05:36:43;;;;;;;6.82;4.70;;;;;;;;;;5102404;28;20474;-56
2023/10/30 05:39:09;;;;;;;7.60;5.30;;;;;;;;;;5112179;28;20122;-52
2023/10/30 05:41:36;;;;;;;7.60;4.75;;;;;;;;;;5111531;28;20130;-51
2023/10/30 05:44:05;;;;;;;8.55;5.65;;;;;;;;;;5106387;28;20132;-51
2023/10/30 05:46:31;;;;;;;7.75;5.43;;;;;;;;;;5105284;28;20050;-52
2023/10/30 05:48:58;;;;;;;9.07;5.63;;;;;;;;;;5099918;28;20054;-55
2023/10/30 05:51:26;;;;;;;9.93;5.90;;;;;;;;;;5109597;28;20071;-53
2023/10/30 05:53:53;;;;;;;6.90;5.18;;;;;;;;;;5103458;28;20071;-53
2023/10/30 05:56:20;;;;;;;7.03;5.05;;;;;;;;;;5100760;28;20071;-56
2023/10/30 05:58:46;;;;;;;8.73;5.65;;;;;;;;;;5109975;28;20486;-51
2023/10/30 06:01:13;;;;;;;7.40;5.22;;;;;;;;;;5105136;28;20533;-51
2023/10/30 06:03:40;;;;;;;7.85;5.30;;;;;;;;;;5095731;28;20499;-52
2023/10/30 06:06:07;;;;;;;9.38;5.75;;;;;;;;;;5101799;28;20407;-54
2023/10/30 06:08:35;;;;;;;9.88;5.72;;;;;;;;;;5096139;28;20062;-52
2023/10/30 06:11:02;;;;;;;9.68;5.78;;;;;;;;;;5102638;28;20154;-56
2023/10/30 06:13:28;;;;;;;8.45;5.85;;;;;;;;;;5100699;28;20044;-56
2023/10/30 06:15:55;;;;;;;8.43;5.43;;;;;;;;;;5091733;28;20432;-53
2023/10/30 06:18:23;;;;;;;7.43;5.07;;;;;;;;;;5104044;28;20048;-55
2023/10/30 06:20:49;;;;;;;8.88;5.75;;;;;;;;;;5107024;28;20517;-53
2023/10/30 06:23:16;;;;;;;8.52;5.22;;;;;;;;;;5101695;28;20083;-56
2023/10/30 06:25:45;;;;;;;11.00;5.93;;;;;;;;;;5091751;28;20044;-55
2023/10/30 06:28:14;;;;;;;10.02;5.75;;;;;;;;;;5096750;28;20105;-54
2023/10/30 06:30:41;;;;;;;7.68;5.80;;;;;;;;;;5100635;28;20079;-54
2023/10/30 06:33:08;;;;;;;10.25;5.68;;;;;;;;;;5098251;28;20534;-52
2023/10/30 06:35:35;;;;;;;8.82;5.57;;;;;;;;;;5111298;28;20519;-54
2023/10/30 06:38:01;;;;;;;10.05;5.97;;;;;;;;;;5108739;28;20097;-50
2023/10/30 06:40:28;;;;;;;8.93;5.53;;;;;;;;;;5103771;28;20753;-51
2023/10/30 06:42:56;;;;;;;10.48;5.80;;;;;;;;;;5111748;28;20052;-51
2023/10/30 06:45:23;;;;;;;11.23;6.30;;;;;;;;;;5111575;28;20044;-56
2023/10/30 06:47:50;;;;;;;10.32;6.00;;;;;;;;;;5101284;28;20082;-53
2023/10/30 06:50:16;;;;;;;9.70;5.80;;;;;;;;;;5105638;28;20126;-56
2023/10/30 06:52:43;;;;;;;10.30;6.22;;;;;;;;;;5109815;28;20189;-52
2023/10/30 06:55:10;;;;;;;11.85;5.60;;;;;;;;;;5110958;28;20474;-52
2023/10/30 06:57:37;;;;;;;10.88;6.18;;;;;;;;;;5111569;28;20051;-56
2023/10/30 07:00:06;;;;;;;11.20;5.85;;;;;;;;;;5108659;28;20142;-56
2023/10/30 07:02:33;;;;;;;8.52;5.53;;;;;;;;;;5104302;28;20071;-52
2023/10/30 07:05:00;;;;;;;8.20;5.85;;;;;;;;;;5103809;28;20392;-56
2023/10/30 07:07:27;;;;;;;8.15;5.65;;;;;;;;;;5103748;28;20064;-52
2023/10/30 07:09:53;;;;;;;12.50;6.00;;;;;;;;;;5105940;28;20126;-52
2023/10/30 07:12:20;;;;;;;9.43;6.30;;;;;;;;;;5106868;28;20075;-54
2023/10/30 07:14:47;;;;;;;8.90;5.82;;;;;;;;;;5115114;28;20083;-50
2023/10/30 07:17:15;;;;;;;11.25;6.18;;;;;;;;;;5115029;28;20131;-54
2023/10/30 07:19:42;;;;;;;10.45;6.40;;;;;;;;;;5106286;28;20551;-52
2023/10/30 07:22:08;;;;;;;10.43;5.57;;;;;;;;;;5108719;28;20149;-55
2023/10/30 07:24:36;;;;;;;8.93;5.32;;;;;;;;;;5111131;28;20083;-54
2023/10/30 07:27:02;;;;;;;7.85;5.25;;;;;;;;;;5114972;28;20092;-54
2023/10/30 07:29:29;;;;;;;7.72;4.88;;;;;;;;;;5113266;28;20135;-51
2023/10/30 07:31:56;;;;;;;7.20;4.93;;;;;;;;;;5107804;28;20475;-51
2023/10/30 07:34:24;;;;;;;9.00;5.00;;;;;;;;;;5111843;28;20039;-53
2023/10/30 07:36:51;;;;;;;8.98;5.10;;;;;;;;;;5113369;28;20050;-54
2023/10/30 07:39:17;;;;;;;7.60;4.95;;;;;;;;;;5114804;28;20043;-56
2023/10/30 07:41:44;;;;;;;9.02;4.68;;;;;;;;;;5105872;28;20036;-52
2023/10/30 07:44:11;;;;;;;9.75;5.03;;;;;;;;;;5110500;28;20047;-55
2023/10/30 07:46:38;;;;;;;6.95;4.47;;;;;;;;;;5111079;28;20040;-57
2023/10/30 07:49:07;;;;;;;7.93;5.00;;;;;;;;;;5105683;28;20040;-52
2023/10/30 07:51:36;;;;;;;6.95;4.55;;;;;;;;;;5104737;28;20514;-51
2023/10/30 07:54:02;;;;;;;7.80;4.70;;;;;;;;;;5105006;28;20499;-54
2023/10/30 07:56:29;;;;;;;8.30;5.63;;;;;;;;;;5112394;28;20097;-52
2023/10/30 07:58:56;;;;;;;7.72;5.00;;;;;;;;;;5098033;28;20056;-53
2023/10/30 08:01:22;;;;;;;7.40;4.90;;;;;;;;;;5096397;28;20126;-54
2023/10/30 08:03:49;;;;;;;7.53;4.75;;;;;;;;;;5108441;28;20123;-52
2023/10/30 08:06:16;;;;;;;7.32;4.93;;;;;;;;;;5114285;28;20126;-52
2023/10/30 08:08:44;;;;;;;11.15;5.70;;;;;;;;;;5114089;28;20506;-54
2023/10/30 08:11:11;;;;;;;8.50;5.45;;;;;;;;;;5113278;28;20112;-54
2023/10/30 08:13:38;;;;;;;9.38;5.45;;;;;;;;;;5108983;28;20086;-52
2023/10/30 08:16:05;;;;;;;7.32;5.15;;;;;;;;;;5111217;28;20388;-52
2023/10/30 08:18:32;;;;;;;9.15;6.20;;;;;;;;;;5112084;28;20044;-52
2023/10/30 08:20:59;;;;;;;10.73;6.20;;;;;;;;;;5112448;28;20075;-54
2023/10/30 08:23:25;;;;;;;8.68;6.05;;;;;;;;;;5111099;27;20047;-55
2023/10/30 08:25:53;;;;;;;8.95;5.40;;;;;;;;;;5109365;28;20036;-52
2023/10/30 08:28:21;;;;;;;9.82;6.35;;;;;;;;;;5103727;28;20633;-51
2023/10/30 08:30:47;;;;;;;8.73;6.30;;;;;;;;;;5108790;28;20040;-54
2023/10/30 08:33:14;;;;;;;9.75;5.78;;;;;;;;;;5110130;28;20131;-56
2023/10/30 08:35:41;;;;;;;7.90;5.57;;;;;;;;;;5112030;28;20048;-50
2023/10/30 08:38:08;;;;;;;16.48;6.45;;;;;;;;;;5099937;28;20078;-54
2023/10/30 08:40:34;;;;;;;7.22;5.20;;;;;;;;;;5103533;28;20702;-56
2023/10/30 08:43:02;;;;;;;8.82;6.00;;;;;;;;;;5109843;28;20039;-53
2023/10/30 08:45:29;;;;;;;9.27;5.50;;;;;;;;;;5102834;28;20067;-57
2023/10/30 08:47:56;;;;;;;10.23;5.55;;;;;;;;;;5107942;28;20071;-50
2023/10/30 08:50:22;;;;;;;7.95;5.47;;;;;;;;;;5105469;28;20048;-55
2023/10/30 08:52:49;;;;;;;8.30;5.18;;;;;;;;;;5103477;28;20100;-55
2023/10/30 08:55:16;;;;;;;11.60;5.70;;;;;;;;;;5104243;28;20050;-53
2023/10/30 08:57:42;;;;;;;7.38;5.13;;;;;;;;;;5106284;28;20086;-54
2023/10/30 09:00:12;;;;;;;8.98;5.68;;;;;;;;;;5106898;28;20134;-54
2023/10/30 09:02:39;;;;;;;8.27;4.85;;;;;;;;;;5110886;28;20051;-56
2023/10/30 09:05:07;;;;;;;9.40;5.82;;;;;;;;;;5102924;28;20168;-53
2023/10/30 09:07:34;;;;;;;10.20;5.38;;;;;;;;;;5101128;28;20104;-53
2023/10/30 09:10:00;;;;;;;8.05;5.40;;;;;;;;;;5103786;28;20123;-54
2023/10/30 09:12:27;;;;;;;7.40;5.35;;;;;;;;;;5108381;28;20608;-52
2023/10/30 09:14:54;;;;;;;6.35;4.78;;;;;;;;;;5104937;28;20550;-55
2023/10/30 09:17:22;;;;;;;7.13;4.88;;;;;;;;;;5107410;28;20112;-53
2023/10/30 09:19:48;;;;;;;6.70;4.50;;;;;;;;;;5103294;28;20123;-53
2023/10/30 09:22:15;;;;;;;6.63;4.55;;;;;;;;;;5104951;28;20146;-55
2023/10/30 09:24:42;;;;;;;7.63;4.10;;;;;;;;;;5105272;28;20574;-55
2023/10/30 09:27:09;;;;;;;9.43;4.40;;;;;;;;;;5107027;28;20118;-52
2023/10/30 09:29:36;;;;;;;6.28;4.05;;;;;;;;;;5106982;28;20067;-50
2023/10/30 09:32:03;;;;;;;6.15;3.47;;;;;;;;;;5108989;28;20123;-53
2023/10/30 09:34:31;;;;;;;6.57;3.38;;;;;;;;;;5109383;28;20051;-51
2023/10/30 09:36:59;;;;;;;5.43;3.33;;;;;;;;;;5105058;28;20075;-52
2023/10/30 09:39:25;;;;;;;5.20;3.35;;;;;;;;;;5101402;28;20062;-53
2023/10/30 09:41:54;;;;;;;9.25;3.70;;;;;;;;;;5100509;28;20607;-52
2023/10/30 09:44:22;;;;;;;6.90;4.45;;;;;;;;;;5103566;28;20376;-56
2023/10/30 09:46:50;;;;;;;7.25;3.97;;;;;;;;;;5107985;28;20062;-53
2023/10/30 09:49:20;;;;;;;6.10;3.60;;;;;;;;;;5105142;28;20096;-57
2023/10/30 09:51:49;;;;;;;4.43;2.77;;;;;;;;;;5101473;28;20124;-57
2023/10/30 09:54:17;;;;;;;6.43;3.20;;;;;;;;;;5106053;28;20079;-56
2023/10/30 09:56:44;;;;;;;6.65;2.72;;;;;;;;;;5103778;28;20070;-52
2023/10/30 09:59:13;;;;;;;5.00;3.15;;;;;;;;;;5104138;28;20102;-52
2023/10/30 10:01:40;;;;;;;7.00;2.90;;;;;;;;;;5101658;28;20043;-55
2023/10/30 10:04:07;;;;;;;4.22;2.70;;;;;;;;;;5108154;28;20040;-57
2023/10/30 10:06:36;;;;;;;5.53;3.33;;;;;;;;;;5106883;28;20083;-57
2023/10/30 10:09:07;;;;;;;10.98;2.65;;;;;;;;;;5098817;28;20040;-56
2023/10/30 10:11:37;;;;;;;4.53;2.53;;;;;;;;;;5106270;27;20056;-63
2023/10/30 10:14:04;;;;;;;5.20;3.13;;;;;;;;;;5102119;28;20051;-58
2023/10/30 10:16:31;;;;;;;5.20;2.40;;;;;;;;;;5104410;28;20600;-58
2023/10/30 10:18:57;;;;;;;4.88;2.25;;;;;;;;;;5108265;28;20116;-56
2023/10/30 10:21:24;;;;;;;4.00;2.20;;;;;;;;;;5104131;28;20459;-54
2023/10/30 10:23:51;;;;;;;4.53;2.15;;;;;;;;;;5104911;28;20074;-58
2023/10/30 10:26:19;;;;;;;3.72;2.03;;;;;;;;;;5100196;28;20050;-55
2023/10/30 10:28:47;;;;;;;4.10;2.22;;;;;;;;;;5107028;28;20071;-68
2023/10/30 10:31:14;;;;;;;5.45;2.10;;;;;;;;;;5109025;28;20070;-54
2023/10/30 10:33:40;;;;;;;5.18;2.10;;;;;;;;;;5109348;28;20123;-56
2023/10/30 10:36:08;;;;;;;6.45;3.03;;;;;;;;;;5107861;28;20147;-63
2023/10/30 10:38:35;;;;;;;4.80;2.25;;;;;;;;;;5109529;28;20175;-63
2023/10/30 10:41:02;;;;;;;5.93;2.72;;;;;;;;;;5107758;28;20044;-60
2023/10/30 10:43:31;;;;;;;9.75;4.88;;;;;;;;;;5105147;28;20074;-57
2023/10/30 10:45:59;;;;;;;12.18;4.93;;;;;;;;;;5102761;28;20123;-57
2023/10/30 10:48:27;;;;;;;5.78;2.58;;;;;;;;;;5110845;28;20044;-56
2023/10/30 10:50:55;;;;;;;7.40;3.10;;;;;;;;;;5111776;28;20126;-59
2023/10/30 10:53:24;;;;;;;4.85;2.50;;;;;;;;;;5113285;28;20055;-59
2023/10/30 10:55:51;;;;;;;5.50;2.30;;;;;;;;;;5107789;28;20062;-55
2023/10/30 10:58:21;;;;;;;5.03;1.80;;;;;;;;;;5103499;28;20466;-57
2023/10/30 11:00:51;;;;;;;7.20;2.45;;;;;;;;;;5112004;28;20075;-55
2023/10/30 11:03:18;;;;;;;5.13;2.33;;;;;;;;;;5108771;28;20040;-57
2023/10/30 11:05:49;;;;;;;4.90;2.28;;;;;;;;;;5110380;28;20308;-59
2023/10/30 11:08:35;;;;;;;5.88;2.40;;;;;;;;;;5112346;28;20097;-57
2023/10/30 11:11:10;;;;;;;6.88;1.90;;;;;;;;;;5105891;28;20126;-58
2023/10/30 11:13:44;;;;;;;4.05;2.00;;;;;;;;;;5111649;28;20499;-58
2023/10/30 11:16:26;;;;;;;4.68;1.90;;;;;;;;;;5107452;28;20055;-59
2023/10/30 11:18:53;;;;;;;3.92;1.83;;;;;;;;;;5108296;28;20039;-56
2023/10/30 11:21:25;;;;;;;6.10;2.10;;;;;;;;;;5103797;28;20131;-55
2023/10/30 11:23:54;;;;;;;4.35;2.42;;;;;;;;;;5103919;28;20078;-57
2023/10/30 11:26:43;;;;;;;4.45;2.88;;;;;;;;;;5109872;28;20047;-57
2023/10/30 11:29:12;;;;;;;3.95;1.80;;;;;;;;;;5111221;28;20506;-56
2023/10/30 11:31:54;;;;;;;4.78;1.80;;;;;;;;;;5107179;28;20422;-56
2023/10/30 11:34:26;;;;;;;7.15;2.10;;;;;;;;;;5109691;28;20047;-57
2023/10/30 11:36:53;;;;;;;4.68;1.50;;;;;;;;;;5109728;28;20051;-57
2023/10/30 11:39:21;;;;;;;3.38;1.80;;;;;;;;;;5105434;28;20560;-55
2023/10/30 11:41:52;;;;;;;4.20;1.80;;;;;;;;;;5106250;28;20074;-57
2023/10/30 11:44:20;;;;;;;6.38;1.95;;;;;;;;;;5106703;28;20052;-56
2023/10/30 11:46:47;;;;;;;5.03;2.40;;;;;;;;;;5105635;28;20052;-55
2023/10/30 11:49:16;;;;;;;7.75;3.67;;;;;;;;;;5112332;28;20055;-57
2023/10/30 11:51:45;;;;;;;13.68;4.70;;;;;;;;;;5110523;28;20035;-56
2023/10/30 11:54:12;;;;;;;10.43;3.75;;;;;;;;;;5109681;28;20147;-55
2023/10/30 11:56:39;;;;;;;6.28;2.50;;;;;;;;;;5111116;28;20122;-58
2023/10/30 11:59:06;;;;;;;6.43;1.92;;;;;;;;;;5109568;28;20078;-54
2023/10/30 12:01:33;;;;;;;6.65;1.80;;;;;;;;;;5110353;28;20420;-57
2023/10/30 12:04:00;;;;;;;4.65;2.10;;;;;;;;;;5104026;28;20511;-54
2023/10/30 12:06:28;;;;;;;3.85;2.35;;;;;;;;;;5109519;28;20499;-55
2023/10/30 12:08:55;;;;;;;6.82;1.85;;;;;;;;;;5109057;28;20042;-57
2023/10/30 12:11:22;;;;;;;5.55;2.10;;;;;;;;;;5109214;28;20133;-57
2023/10/30 12:13:50;;;;;;;6.25;1.80;;;;;;;;;;5110136;28;20039;-54
2023/10/30 12:16:17;;;;;;;4.07;1.75;;;;;;;;;;5108387;28;20463;-54
2023/10/30 12:18:44;;;;;;;4.35;2.20;;;;;;;;;;5109338;28;20058;-58
2023/10/30 12:21:10;;;;;;;3.70;1.90;;;;;;;;;;5108163;28;20490;-55
2023/10/30 12:23:49;;;;;;;4.63;2.42;;;;;;;;;;5110586;28;20074;-52
2023/10/30 12:26:15;;;;;;;5.15;2.10;;;;;;;;;;5111550;28;20059;-52
2023/10/30 12:28:43;;;;;;;4.90;2.50;;;;;;;;;;5110315;28;20052;-52
2023/10/30 12:31:17;;;;;;;4.30;2.33;;;;;;;;;;5108324;28;20035;-58
2023/10/30 12:33:44;;;;;;;4.95;2.10;;;;;;;;;;5107063;28;20078;-57
2023/10/30 12:36:11;;;;;;;3.90;1.95;;;;;;;;;;5109682;28;20079;-54
2023/10/30 12:38:37;;;;;;;6.00;2.40;;;;;;;;;;5111581;28;20145;-54
2023/10/30 12:41:07;;;;;;;5.13;2.03;;;;;;;;;;5105420;28;20048;-57
2023/10/30 12:43:38;;;;;;;4.40;2.77;;;;;;;;;;5111572;28;20048;-56
2023/10/30 12:46:05;;;;;;;5.05;2.35;;;;;;;;;;5111734;28;20793;-57
2023/10/30 12:48:32;;;;;;;5.22;2.55;;;;;;;;;;5111248;28;20051;-55
2023/10/30 12:50:59;;;;;;;5.30;2.17;;;;;;;;;;5101085;28;20075;-57
2023/10/30 12:53:25;;;;;;;6.47;2.15;;;;;;;;;;5111008;28;20590;-55
2023/10/30 12:55:52;;;;;;;4.82;2.20;;;;;;;;;;5108998;28;20050;-57
2023/10/30 12:58:20;;;;;;;4.95;2.00;;;;;;;;;;5111446;28;20127;-58
2023/10/30 13:00:47;;;;;;;4.05;2.03;;;;;;;;;;5101963;28;20515;-57
2023/10/30 13:03:13;;;;;;;3.42;2.00;;;;;;;;;;5105600;28;20048;-56
2023/10/30 13:05:40;;;;;;;5.55;2.17;;;;;;;;;;5105036;28;20054;-57
2023/10/30 13:08:07;;;;;;;4.72;2.13;;;;;;;;;;5108417;28;20101;-53
2023/10/30 13:10:34;;;;;;;4.53;2.53;;;;;;;;;;5110492;28;20079;-56
2023/10/30 13:13:00;;;;;;;4.30;1.70;;;;;;;;;;5110198;28;20118;-54
2023/10/30 13:15:28;;;;;;;5.18;1.90;;;;;;;;;;5107408;28;20083;-55
2023/10/30 13:17:56;;;;;;;7.10;2.08;;;;;;;;;;5110733;28;20085;-53
2023/10/30 13:20:23;;;;;;;4.65;2.22;;;;;;;;;;5110526;28;20513;-56
2023/10/30 13:22:49;;;;;;;5.07;2.20;;;;;;;;;;5110409;28;20471;-57
2023/10/30 13:25:17;;;;;;;6.10;2.28;;;;;;;;;;5109870;28;20576;-52
2023/10/30 13:27:44;;;;;;;5.38;1.85;;;;;;;;;;5104604;28;20079;-54
2023/10/30 13:30:12;;;;;;;5.47;2.30;;;;;;;;;;5110478;28;20046;-53
2023/10/30 13:32:40;;;;;;;6.75;3.28;;;;;;;;;;5110523;28;20051;-54
2023/10/30 13:35:07;;;;;;;4.07;2.63;;;;;;;;;;5100919;28;20131;-55
2023/10/30 13:37:35;;;;;;;4.70;2.38;;;;;;;;;;5103434;28;20051;-58
2023/10/30 13:40:02;;;;;;;7.80;3.35;;;;;;;;;;5105732;28;20071;-57
2023/10/30 13:42:29;;;;;;;39.35;27.52;;;;;;;;;;5102846;28;20071;-55
2023/10/30 13:44:56;;;;;;;49.88;33.97;;;;;;;;;;5104699;28;20040;-51
2023/10/30 13:47:22;;;;;;;11.80;8.25;;;;;;;;;;5103394;28;20055;-57
2023/10/30 13:49:51;;;;;;;12.27;7.55;;;;;;;;;;5107059;28;20127;-52
2023/10/30 13:52:18;;;;;;;11.45;7.78;;;;;;;;;;5107221;28;20075;-55
2023/10/30 13:54:46;;;;;;;10.10;7.35;;;;;;;;;;5103577;28;20040;-56
2023/10/30 13:57:13;;;;;;;10.32;7.22;;;;;;;;;;5109708;28;20051;-57
2023/10/30 13:59:40;;;;;;;10.77;7.35;;;;;;;;;;5108995;28;20134;-56
2023/10/30 14:02:07;;;;;;;10.65;7.45;;;;;;;;;;5107666;28;20066;-55
2023/10/30 14:04:33;;;;;;;9.65;6.90;;;;;;;;;;5108908;28;20236;-55
2023/10/30 14:07:01;;;;;;;8.60;6.22;;;;;;;;;;5106875;28;20046;-51
2023/10/30 14:09:28;;;;;;;11.18;6.75;;;;;;;;;;5101742;28;20131;-53
2023/10/30 14:11:55;;;;;;;11.68;7.53;;;;;;;;;;5108383;28;20122;-52
2023/10/30 14:14:22;;;;;;;10.43;6.50;;;;;;;;;;5106749;28;20101;-54
2023/10/30 14:16:50;;;;;;;11.05;7.53;;;;;;;;;;5109832;28;20421;-56
2023/10/30 14:19:17;;;;;;;10.27;7.35;;;;;;;;;;5104837;28;20044;-54
2023/10/30 14:21:45;;;;;;;9.82;6.88;;;;;;;;;;5100957;28;20082;-56
2023/10/30 14:24:13;;;;;;;10.77;7.13;;;;;;;;;;5109339;28;20505;-53
2023/10/30 14:26:40;;;;;;;13.32;7.82;;;;;;;;;;5106864;28;20075;-57
2023/10/30 14:29:07;;;;;;;9.88;7.30;;;;;;;;;;5108891;28;20058;-58
2023/10/30 14:31:33;;;;;;;14.10;7.15;;;;;;;;;;5104179;28;20450;-54
2023/10/30 14:34:00;;;;;;;9.85;7.28;;;;;;;;;;5103696;28;20063;-54
2023/10/30 14:36:26;;;;;;;10.07;7.32;;;;;;;;;;5104748;28;20040;-51
2023/10/30 14:38:53;;;;;;;10.88;7.53;;;;;;;;;;5106605;28;20198;-54
2023/10/30 14:41:21;;;;;;;13.32;8.50;;;;;;;;;;5106736;28;20495;-55